Hatsu Eagle — ZNZH6 — position and weather

sailwx.info

Track history (hours):
 
Tides and Currents Weather Stations Pressure Air Temp Water Temp Dewpoint Dewpoint Depression Visibility Wind Speed Wind Dir Waves Ship Positions

Hatsu Eagle

Last reported at 2017-Sep-21 00:00 UTC. Time now 2017-Sep-21 05:27 UTC.
Position N 36°18' E 143°18'.

Type: Ship (hazmat cat D). MMSI: 235335000.

Wind from 330 at 19 knots

Barometer 1011.0 mb
Air temperature 24.0 ° C
Visibility: greater than 5.4 NM
Dewpoint 22.5 ° C

Date/timePositionNaut miles runAvg speedWind from/ knotsBaromVisibWave heightAir tempDewpointWater temp
2017-Sep-21 00:00N 36°18' E 143°18'18121.0 330 / 191011.0 5.4 24.022.5
2017-Sep-20 15:23N 34°50' E 140°04'923.6
2017-Sep-20 15:00N 34°47' E 139°54'32621.7
2017-Sep-20 00:00N 32°18' E 134°06'   250 / 291014.0 5.4 28.025.2
2017-Sep-17 18:02N 22°50' E 116°52'118.9
2017-Sep-17 18:00N 22°49' E 116°52'1118.6
2017-Sep-17 17:24N 22°43' E 116°42'155 3.4
2017-Sep-15 19:28N 22°21' E 113°55'4 8.6
2017-Sep-15 19:00N 22°25' E 113°53'2 4.4
2017-Sep-15 18:30N 22°27' E 113°53'0 0.2
2017-Sep-15 18:00N 22°27' E 113°53'0 0.0
2017-Sep-15 16:48N 22°27' E 113°53'0 0.0
2017-Sep-15 06:34N 22°27' E 113°53'1 3.1
2017-Sep-15 06:08N 22°26' E 113°53'2 8.9
2017-Sep-15 05:58N 22°24' E 113°54'240 7.1
2017-Sep-13 20:08N 23°44' E 117°59'413.1
2017-Sep-13 19:50N 23°47' E 118°02'713.1
2017-Sep-13 19:17N 23°52' E 118°07'513.0
2017-Sep-13 18:53N 23°56' E 118°10'513.0
2017-Sep-13 18:30N 24°00' E 118°14'612.5
2017-Sep-13 18:00N 24°05' E 118°17'712.3
2017-Sep-13 17:28N 24°12' E 118°17'612.1
2017-Sep-13 17:00N 24°17' E 118°14'611.8
2017-Sep-13 16:30N 24°21' E 118°09'4 9.0
2017-Sep-13 16:01N 24°24' E 118°06'611.2
2017-Sep-13 15:30N 24°27' E 118°00'0 0.3
2017-Sep-13 15:01N 24°27' E 118°00'0 0.0
2017-Sep-13 14:30N 24°27' E 118°00'0 0.0
2017-Sep-13 14:00N 24°27' E 118°00'0 0.0
2017-Sep-13 13:30N 24°27' E 118°00'0 0.0
2017-Sep-13 13:00N 24°27' E 118°00'0 0.0
2017-Sep-13 12:30N 24°27' E 118°00'0 0.0
2017-Sep-13 12:00N 24°27' E 118°00'0 0.0
2017-Sep-13 11:31N 24°27' E 118°00'0 0.0
2017-Sep-13 11:00N 24°27' E 118°00'0 0.0
2017-Sep-13 10:30N 24°27' E 118°00'0 0.0
2017-Sep-13 10:01N 24°27' E 118°00'0 0.0
2017-Sep-13 09:31N 24°27' E 118°00'0 0.0
2017-Sep-13 09:00N 24°27' E 118°00'0 0.0
2017-Sep-13 08:30N 24°27' E 118°00'0 0.0
2017-Sep-13 08:00N 24°27' E 118°00'0 0.0
2017-Sep-13 07:30N 24°27' E 118°00'0 0.0
2017-Sep-13 07:00N 24°27' E 118°00'0 0.0
2017-Sep-13 06:31N 24°27' E 118°00'0 0.0
2017-Sep-13 06:00N 24°27' E 118°00'0 0.0
2017-Sep-13 05:30N 24°27' E 118°00'0 0.0
2017-Sep-13 05:00N 24°27' E 118°00'0 0.0
2017-Sep-13 04:30N 24°27' E 118°00'0 0.0
2017-Sep-13 04:00N 24°27' E 118°00'0 0.0
2017-Sep-13 03:30N 24°27' E 118°00'0 0.0
2017-Sep-13 03:01N 24°27' E 118°00'0 0.0
2017-Sep-13 02:31N 24°27' E 118°00'0 0.0
2017-Sep-13 02:00N 24°27' E 118°00'0 0.0
2017-Sep-13 01:31N 24°27' E 118°00'0 0.0
2017-Sep-13 01:00N 24°27' E 118°00'0 0.0
2017-Sep-13 00:30N 24°27' E 118°00'0 0.0
2017-Sep-13 00:00N 24°27' E 118°00'0 0.0
2017-Sep-12 23:30N 24°27' E 118°00'0 0.0
2017-Sep-12 23:00N 24°27' E 118°00'0 0.0
2017-Sep-12 22:30N 24°27' E 118°00'0 0.0
2017-Sep-12 22:00N 24°27' E 118°00'0 0.0
2017-Sep-12 21:30N 24°27' E 118°00'0 0.0
2017-Sep-12 21:01N 24°27' E 118°00'0 0.0
2017-Sep-12 20:31N 24°27' E 118°00'0 0.0
2017-Sep-12 20:00N 24°27' E 118°00'0 0.0
2017-Sep-12 19:31N 24°27' E 118°00'0 0.0
2017-Sep-12 19:01N 24°27' E 118°00'0 0.0
2017-Sep-12 18:30N 24°27' E 118°00'0 0.0
2017-Sep-12 18:00N 24°27' E 118°00'1 2.7
2017-Sep-12 17:31N 24°26' E 118°02'510.6
2017-Sep-12 17:00N 24°24' E 118°07'4 7.1
2017-Sep-12 16:30N 24°21' E 118°09'5 9.4
2017-Sep-12 16:00N 24°18' E 118°13'510.5
2017-Sep-12 15:30N 24°14' E 118°17'5 9.8
2017-Sep-12 14:59N 24°12' E 118°22'811.8
2017-Sep-12 14:16N 24°15' E 118°31'513.5
2017-Sep-12 13:56N 24°16' E 118°35'1012.8
2017-Sep-12 13:09N 24°20' E 118°46'213.0
2017-Sep-12 13:00N 24°21' E 118°48'2613.4
2017-Sep-12 11:03N 24°32' E 119°13'113.7
2017-Sep-12 11:00N 24°33' E 119°14'122 4.7
2017-Sep-11 09:23N 25°24' E 121°16'  
Track history (hours):
 
Tides and Currents Weather Stations Pressure Air Temp Water Temp Dewpoint Dewpoint Depression Visibility Wind Speed Wind Dir Waves Ship Positions

Hatsu Eagle

Last reported at 2017-Sep-21 00:00 UTC. Time now 2017-Sep-21 05:27 UTC.
Position N 36°18' E 143°18'.

Type: Ship (hazmat cat D). MMSI: 235335000.

Wind from 330 at 19 knots

Barometer 1011.0 mb
Air temperature 24.0 ° C
Visibility: greater than 5.4 NM
Dewpoint 22.5 ° C

Date/timePositionNaut miles runAvg speedWind from/ knotsBaromVisibWave heightAir tempDewpointWater temp
2017-Sep-21 00:00N 36°18' E 143°18'18121.0 330 / 191011.0 5.4 24.022.5
2017-Sep-20 15:23N 34°50' E 140°04'923.6
2017-Sep-20 15:00N 34°47' E 139°54'32621.7
2017-Sep-20 00:00N 32°18' E 134°06'   250 / 291014.0 5.4 28.025.2
2017-Sep-17 18:02N 22°50' E 116°52'118.9
2017-Sep-17 18:00N 22°49' E 116°52'1118.6
2017-Sep-17 17:24N 22°43' E 116°42'155 3.4
2017-Sep-15 19:28N 22°21' E 113°55'4 8.6
2017-Sep-15 19:00N 22°25' E 113°53'2 4.4
2017-Sep-15 18:30N 22°27' E 113°53'0 0.2
2017-Sep-15 18:00N 22°27' E 113°53'0 0.0
2017-Sep-15 16:48N 22°27' E 113°53'0 0.0
2017-Sep-15 06:34N 22°27' E 113°53'1 3.1
2017-Sep-15 06:08N 22°26' E 113°53'2 8.9
2017-Sep-15 05:58N 22°24' E 113°54'240 7.1
2017-Sep-13 20:08N 23°44' E 117°59'413.1
2017-Sep-13 19:50N 23°47' E 118°02'713.1
2017-Sep-13 19:17N 23°52' E 118°07'513.0
2017-Sep-13 18:53N 23°56' E 118°10'513.0
2017-Sep-13 18:30N 24°00' E 118°14'612.5
2017-Sep-13 18:00N 24°05' E 118°17'712.3
2017-Sep-13 17:28N 24°12' E 118°17'612.1
2017-Sep-13 17:00N 24°17' E 118°14'611.8
2017-Sep-13 16:30N 24°21' E 118°09'4 9.0
2017-Sep-13 16:01N 24°24' E 118°06'611.2
2017-Sep-13 15:30N 24°27' E 118°00'0 0.3
2017-Sep-13 15:01N 24°27' E 118°00'0 0.0
2017-Sep-13 14:30N 24°27' E 118°00'0 0.0
2017-Sep-13 14:00N 24°27' E 118°00'0 0.0
2017-Sep-13 13:30N 24°27' E 118°00'0 0.0
2017-Sep-13 13:00N 24°27' E 118°00'0 0.0
2017-Sep-13 12:30N 24°27' E 118°00'0 0.0
2017-Sep-13 12:00N 24°27' E 118°00'0 0.0
2017-Sep-13 11:31N 24°27' E 118°00'0 0.0
2017-Sep-13 11:00N 24°27' E 118°00'0 0.0
2017-Sep-13 10:30N 24°27' E 118°00'0 0.0
2017-Sep-13 10:01N 24°27' E 118°00'0 0.0
2017-Sep-13 09:31N 24°27' E 118°00'0 0.0
2017-Sep-13 09:00N 24°27' E 118°00'0 0.0
2017-Sep-13 08:30N 24°27' E 118°00'0 0.0
2017-Sep-13 08:00N 24°27' E 118°00'0 0.0
2017-Sep-13 07:30N 24°27' E 118°00'0 0.0
2017-Sep-13 07:00N 24°27' E 118°00'0 0.0
2017-Sep-13 06:31N 24°27' E 118°00'0 0.0
2017-Sep-13 06:00N 24°27' E 118°00'0 0.0
2017-Sep-13 05:30N 24°27' E 118°00'0 0.0
2017-Sep-13 05:00N 24°27' E 118°00'0 0.0
2017-Sep-13 04:30N 24°27' E 118°00'0 0.0
2017-Sep-13 04:00N 24°27' E 118°00'0 0.0
2017-Sep-13 03:30N 24°27' E 118°00'0 0.0
2017-Sep-13 03:01N 24°27' E 118°00'0 0.0
2017-Sep-13 02:31N 24°27' E 118°00'0 0.0
2017-Sep-13 02:00N 24°27' E 118°00'0 0.0
2017-Sep-13 01:31N 24°27' E 118°00'0 0.0
2017-Sep-13 01:00N 24°27' E 118°00'0 0.0
2017-Sep-13 00:30N 24°27' E 118°00'0 0.0
2017-Sep-13 00:00N 24°27' E 118°00'0 0.0
2017-Sep-12 23:30N 24°27' E 118°00'0 0.0
2017-Sep-12 23:00N 24°27' E 118°00'0 0.0
2017-Sep-12 22:30N 24°27' E 118°00'0 0.0
2017-Sep-12 22:00N 24°27' E 118°00'0 0.0
2017-Sep-12 21:30N 24°27' E 118°00'0 0.0
2017-Sep-12 21:01N 24°27' E 118°00'0 0.0
2017-Sep-12 20:31N 24°27' E 118°00'0 0.0
2017-Sep-12 20:00N 24°27' E 118°00'0 0.0
2017-Sep-12 19:31N 24°27' E 118°00'0 0.0
2017-Sep-12 19:01N 24°27' E 118°00'0 0.0
2017-Sep-12 18:30N 24°27' E 118°00'0 0.0
2017-Sep-12 18:00N 24°27' E 118°00'1 2.7
2017-Sep-12 17:31N 24°26' E 118°02'510.6
2017-Sep-12 17:00N 24°24' E 118°07'4 7.1
2017-Sep-12 16:30N 24°21' E 118°09'5 9.4
2017-Sep-12 16:00N 24°18' E 118°13'510.5
2017-Sep-12 15:30N 24°14' E 118°17'5 9.8
2017-Sep-12 14:59N 24°12' E 118°22'811.8
2017-Sep-12 14:16N 24°15' E 118°31'513.5
2017-Sep-12 13:56N 24°16' E 118°35'1012.8
2017-Sep-12 13:09N 24°20' E 118°46'213.0
2017-Sep-12 13:00N 24°21' E 118°48'2613.4
2017-Sep-12 11:03N 24°32' E 119°13'113.7
2017-Sep-12 11:00N 24°33' E 119°14'122 4.7
2017-Sep-11 09:23N 25°24' E 121°16'  

Dump ship's entire track history